Kezdőlap
METAR-TAF:

METAR-TAF

Repülőterek :

Penang, Malajzia

földrajzi szélesség: 05-18N, földrajzi hosszúság: 100-16E, magasság: 3 m

Jelenlegi meteorológiai megfigyelések

A jelentés 56 perccel ezelõtt készült, 20:00 UTC
Nyugat-délnyugati szél 5 kt, dél-délnyugati és nyugati között változik
Hőmérséklet 28°C
Páratartalom 84%
Légköri nyomás 1011 hPa
Látótávolság: 8000 m
Kevés felhő 1700 lábon, Cumulonimbus.

METAR: WMKP 122000Z 24005KT 200V280 8000 FEW017CB 28/25 Q1011 RETS NOSIG

Idő: 04:56 (20:56 UTC)

Előrejelzés

A jelentés 3 órával és 56 perccel ezelõtt készült, 17:00 UTC
Az előrejelzés 12-én 18 óra UTC és 13-én 18 óra UTC között érvényes
Különbözõ irányokból fújó szél 3 kt
Látótávolság: 8000 m
Kevés felhő 2500 lábon
13-én 05 óra UTC és 13-én 07 óra UTC között fokozatosan kialakuló
Délnyugati szél 8 kt
Látótávolság 10 km, vagy több
Kevés felhő 2000 lábon

TAF: WMKP 121700Z 1218/1318 VRB03KT 8000 FEW025 BECMG 1305/1307 23008KT 9999 FEW020

Meteorológiai megfigyelések és előrejelzések több, mint 4000 repülőtéren (METAR és TAF jelentéseket).

A térképen piros és sárga pontok jelzik az elérhető meteorológiai állomásokat.

Mozgassa az egeret a pont fölött, hogy megjelenjen az állomás neve.

Azután kattintson az időjárási megfigyelések és előrejelzések megtekintéséhez.

A térkép megváltoztatása: kattintson a fekete keresztel jelölt zöld gombra ráközelítéshez, a vonallal jelölt zöld gombra távolításhoz, vagy a zöld nyilakra a szomszédos térképek eléréséhez.


METAR-TAF: